Terminal Aerodrome Forecast
Issued by NWS Caribou, ME

Current Version | Previous Version | Text Only | Print | Product List | Glossary On
Versions: 1 2 3 4 5 6 7 8 9 10 11 12 13 14 15 16 17 18 19 20 21 22 23 24 25 26 27
000
FTUS41 KCAR 260500
TAFBGR
TAF
KBGR 260533Z 2606/2706 14004KT P6SM -SHRA OVC060
     FM260900 22004KT P6SM -SHRA OVC025
     FM261000 26004KT P6SM OVC025
     FM261100 29004KT 2SM BR BKN050
     FM261400 30006KT P6SM BKN060=

USA.gov is the U.S. government's official web portal to all federal, state and local government web resources and services.